Pilot Mound, IA (50223)

4:44 PM CDT on June 21, 2018 (GMT -0500)
Main street | | Change Station
Active Advisory: Flood Warning

Elev 1129 ft 42.26 °N, 94.07 °W | Updated 7 seconds ago

Overcast
Overcast
68.7 °F
Feels Like 68.7 °F
N
7
Wind Variable Wind from NNE
Gusts 10.0 mph

Today
High -- | Low -- °F
--% Chance of Precip.
Yesterday
High -- | Low -- °F
Precip. -- in
Pressure 29.76 in
Visibility 7.0 miles
Clouds Mostly Cloudy 1400 ft
Overcast 2000 ft
Dew Point 66 °F
Humidity 91%
Rainfall 0.08 in
Snow Depth Not available.
5:40 AM 8:55 PM
Waxing Gibbous, 65% visible
METAR KBNW 212135Z AUTO 04011G16KT 7SM -RA BKN014 OVC020 20/19 A2976 RMK AO2
Pressure 29.76 in
Visibility 7.0 miles
Clouds Mostly Cloudy 1400 ft
Overcast 2000 ft
Dew Point 66 °F
Humidity 91%
Rainfall 0.08 in
Snow Depth Not available.
5:40 AM 8:55 PM
Waxing Gibbous, 65% visible
METAR KBNW 212135Z AUTO 04011G16KT 7SM -RA BKN014 OVC020 20/19 A2976 RMK AO2

Get Your Daily Forecast Email!

Thanks for signing up!

Be on the lookout for a verification email in your inbox.

You'll start receiving severe weather alerts in your inbox..

×

10-Day Weather Forecast

Almanac

Astronomy

Jun. 21, 2018 Rise Set
Actual Time
Civil Twilight
Nautical Twilight
Astronomical Twilight
Moon
Length of Visible Light
Length of Day
Tomorrow will be .
, % of the Moon is Illuminated

Today's Extremes

State Highs State Lows

Community

WunderPhotos

Category 6

Welcome to Category 6. This is the collective home for Weather Underground's featured writeups by Dr. Jeff Masters (right), Bob Henson (left), Chris Burt, and other regular contributors.

Nearby

Air Quality

  Air Quality AQ Index Pollutant
Not available.

Snow Depth

Station Depth Elevation

Earthquake Activity

City Distance Mag. Time & Date
Minimum magnitude displayed is 2.5.

Coastal Water Temperatures

Place Temperature

Stations

Nearby Weather Stations

Station Location Temp. Windchill Dew Point Humidity Wind Precip. Elev Updated Type
                   

Watches & Warnings

Flood Warning
Issued: 4:31 PM CDT Jun. 21, 2018 – National Weather Service

... Flood Warning remains in effect until late Tuesday evening...

The Flood Warning continues for
the Des Moines River near Stratford, or from the Boone river... to
near the city of Boone.
* Until late Tuesday evening.
* At 4:00 PM Thursday the stage was 19.4 feet, or 1.6 feet below
flood stage.
* Flood stage is 21.0 feet.
* No flooding is occurring and minor flooding is forecast.
* Forecast... rise to flood stage Friday evening. Continue rising to
22.0 feet, or 1.0 feet above flood stage, early Monday morning.
Then begin falling and go below flood stage late Tuesday evening.
* Impact... at 19.0 feet, water affects 157th street on the west side
of Fraser.


Lat... Lon 4200 9397 4230 9404 4232 9393 4221 9393
      4198 9387 4200 9397